Altura, Minnesota
Current Conditions -  °F | °C
As of 9:14 AM on Saturday 20 Dec 2014 (Local Time) from KONA Reporting Station
Haze Haze  
Wind Chill: 27°   Ceiling: 1400
Heat Index: 32°   Visibility: 5mi
Dew Point: 28°   Wind: 5mph
Humidity: 87%   Direction: 130°SE
Pressure: 30.22"   Gusts: NA
Location:  44.07°N, 91.94°W
Report Text: KONA 201514Z AUTO 13004KT 5SM HZ OVC014 00/M02 A3022 RMK AO2
Loading
Personal Weather Stations






























Interactive Weather Map New forecast layout! Learn more

10-Day Weather Forecast

Advertisements
Track Severe Weather on mobile